sensor_id;sensor_type;location;lat;lon;timestamp;P1;durP1;ratioP1;P2;durP2;ratioP2
6442;SDS011;3254;47.372;8.512;2023-10-13T00:01:46;12.87;;;4.70;;
6442;SDS011;3254;47.372;8.512;2023-10-13T00:04:12;8.30;;;4.27;;
6442;SDS011;3254;47.372;8.512;2023-10-13T00:06:38;8.47;;;4.53;;
6442;SDS011;3254;47.372;8.512;2023-10-13T00:09:04;5.83;;;4.30;;
6442;SDS011;3254;47.372;8.512;2023-10-13T00:11:29;5.27;;;4.40;;
6442;SDS011;3254;47.372;8.512;2023-10-13T00:13:55;11.67;;;5.23;;
6442;SDS011;3254;47.372;8.512;2023-10-13T00:16:21;11.03;;;4.27;;
6442;SDS011;3254;47.372;8.512;2023-10-13T00:18:47;9.83;;;4.80;;
6442;SDS011;3254;47.372;8.512;2023-10-13T00:21:15;12.83;;;4.90;;
6442;SDS011;3254;47.372;8.512;2023-10-13T00:23:45;7.07;;;5.07;;
6442;SDS011;3254;47.372;8.512;2023-10-13T00:26:20;4.57;;;4.13;;
6442;SDS011;3254;47.372;8.512;2023-10-13T00:28:57;4.50;;;4.10;;
6442;SDS011;3254;47.372;8.512;2023-10-13T00:31:41;6.83;;;4.50;;
6442;SDS011;3254;47.372;8.512;2023-10-13T00:34:08;9.50;;;4.87;;
6442;SDS011;3254;47.372;8.512;2023-10-13T00:36:43;5.90;;;4.67;;
6442;SDS011;3254;47.372;8.512;2023-10-13T00:39:31;9.87;;;5.00;;
6442;SDS011;3254;47.372;8.512;2023-10-13T00:42:01;7.70;;;5.77;;
6442;SDS011;3254;47.372;8.512;2023-10-13T00:44:33;18.10;;;4.70;;
6442;SDS011;3254;47.372;8.512;2023-10-13T00:47:13;8.93;;;4.40;;
6442;SDS011;3254;47.372;8.512;2023-10-13T00:49:44;10.00;;;4.80;;
6442;SDS011;3254;47.372;8.512;2023-10-13T00:52:13;4.80;;;4.17;;
6442;SDS011;3254;47.372;8.512;2023-10-13T00:54:41;5.40;;;4.50;;
6442;SDS011;3254;47.372;8.512;2023-10-13T00:57:14;14.03;;;4.47;;
6442;SDS011;3254;47.372;8.512;2023-10-13T00:59:54;6.00;;;4.77;;
6442;SDS011;3254;47.372;8.512;2023-10-13T01:02:22;10.37;;;4.20;;
6442;SDS011;3254;47.372;8.512;2023-10-13T01:05:06;7.70;;;3.93;;
6442;SDS011;3254;47.372;8.512;2023-10-13T01:07:34;8.70;;;3.67;;
6442;SDS011;3254;47.372;8.512;2023-10-13T01:10:02;10.33;;;4.57;;
6442;SDS011;3254;47.372;8.512;2023-10-13T01:12:40;9.20;;;5.10;;
6442;SDS011;3254;47.372;8.512;2023-10-13T01:15:10;10.53;;;5.60;;
6442;SDS011;3254;47.372;8.512;2023-10-13T01:17:38;9.30;;;4.90;;
6442;SDS011;3254;47.372;8.512;2023-10-13T01:20:04;7.07;;;4.60;;
6442;SDS011;3254;47.372;8.512;2023-10-13T01:22:30;5.03;;;4.13;;
6442;SDS011;3254;47.372;8.512;2023-10-13T01:24:57;10.10;;;4.53;;
6442;SDS011;3254;47.372;8.512;2023-10-13T01:27:35;6.00;;;3.73;;
6442;SDS011;3254;47.372;8.512;2023-10-13T01:30:03;8.90;;;4.20;;
6442;SDS011;3254;47.372;8.512;2023-10-13T01:32:47;5.93;;;3.97;;
6442;SDS011;3254;47.372;8.512;2023-10-13T01:35:15;6.07;;;4.20;;
6442;SDS011;3254;47.372;8.512;2023-10-13T01:37:43;7.53;;;4.10;;
6442;SDS011;3254;47.372;8.512;2023-10-13T01:40:10;8.37;;;3.67;;
6442;SDS011;3254;47.372;8.512;2023-10-13T01:42:37;5.30;;;4.40;;
6442;SDS011;3254;47.372;8.512;2023-10-13T01:45:03;6.50;;;4.40;;
6442;SDS011;3254;47.372;8.512;2023-10-13T01:47:32;4.40;;;4.00;;
6442;SDS011;3254;47.372;8.512;2023-10-13T01:49:58;10.67;;;4.53;;
6442;SDS011;3254;47.372;8.512;2023-10-13T01:52:37;8.80;;;4.13;;
6442;SDS011;3254;47.372;8.512;2023-10-13T01:55:03;8.37;;;4.60;;
6442;SDS011;3254;47.372;8.512;2023-10-13T01:57:31;6.30;;;4.17;;
6442;SDS011;3254;47.372;8.512;2023-10-13T01:59:57;6.70;;;3.33;;
6442;SDS011;3254;47.372;8.512;2023-10-13T02:02:29;10.03;;;4.57;;
6442;SDS011;3254;47.372;8.512;2023-10-13T02:04:55;5.87;;;4.00;;
6442;SDS011;3254;47.372;8.512;2023-10-13T02:07:22;4.13;;;3.63;;
6442;SDS011;3254;47.372;8.512;2023-10-13T02:09:59;9.90;;;4.03;;
6442;SDS011;3254;47.372;8.512;2023-10-13T02:12:29;4.57;;;3.70;;
6442;SDS011;3254;47.372;8.512;2023-10-13T02:15:02;12.87;;;4.30;;
6442;SDS011;3254;47.372;8.512;2023-10-13T02:17:30;7.80;;;3.80;;
6442;SDS011;3254;47.372;8.512;2023-10-13T02:20:08;16.93;;;4.80;;
6442;SDS011;3254;47.372;8.512;2023-10-13T02:22:39;5.00;;;4.50;;
6442;SDS011;3254;47.372;8.512;2023-10-13T02:25:14;7.40;;;4.10;;
6442;SDS011;3254;47.372;8.512;2023-10-13T02:27:42;4.63;;;4.23;;
6442;SDS011;3254;47.372;8.512;2023-10-13T02:30:08;6.50;;;3.60;;
6442;SDS011;3254;47.372;8.512;2023-10-13T02:32:40;5.40;;;3.90;;
6442;SDS011;3254;47.372;8.512;2023-10-13T02:35:09;12.57;;;3.90;;
6442;SDS011;3254;47.372;8.512;2023-10-13T02:37:41;8.23;;;3.70;;
6442;SDS011;3254;47.372;8.512;2023-10-13T02:40:20;4.60;;;3.83;;
6442;SDS011;3254;47.372;8.512;2023-10-13T02:42:48;12.53;;;4.30;;
6442;SDS011;3254;47.372;8.512;2023-10-13T02:45:14;11.60;;;3.93;;
6442;SDS011;3254;47.372;8.512;2023-10-13T02:47:39;8.53;;;4.83;;
6442;SDS011;3254;47.372;8.512;2023-10-13T02:50:08;5.80;;;4.40;;
6442;SDS011;3254;47.372;8.512;2023-10-13T02:52:37;4.00;;;3.60;;
6442;SDS011;3254;47.372;8.512;2023-10-13T02:55:06;4.40;;;4.03;;
6442;SDS011;3254;47.372;8.512;2023-10-13T02:57:35;7.43;;;4.03;;
6442;SDS011;3254;47.372;8.512;2023-10-13T03:00:01;10.13;;;4.47;;
6442;SDS011;3254;47.372;8.512;2023-10-13T03:02:47;5.97;;;4.10;;
6442;SDS011;3254;47.372;8.512;2023-10-13T03:05:23;11.87;;;4.23;;
6442;SDS011;3254;47.372;8.512;2023-10-13T03:07:48;9.90;;;4.57;;
6442;SDS011;3254;47.372;8.512;2023-10-13T03:10:15;7.13;;;4.20;;
6442;SDS011;3254;47.372;8.512;2023-10-13T03:12:44;6.40;;;4.37;;
6442;SDS011;3254;47.372;8.512;2023-10-13T03:15:13;5.93;;;4.47;;
6442;SDS011;3254;47.372;8.512;2023-10-13T03:17:43;5.83;;;3.80;;
6442;SDS011;3254;47.372;8.512;2023-10-13T03:20:18;6.40;;;4.20;;
6442;SDS011;3254;47.372;8.512;2023-10-13T03:23:04;5.67;;;3.90;;
6442;SDS011;3254;47.372;8.512;2023-10-13T03:25:34;15.90;;;4.57;;
6442;SDS011;3254;47.372;8.512;2023-10-13T03:28:07;5.40;;;4.07;;
6442;SDS011;3254;47.372;8.512;2023-10-13T03:30:38;7.53;;;4.20;;
6442;SDS011;3254;47.372;8.512;2023-10-13T03:33:06;5.97;;;4.87;;
6442;SDS011;3254;47.372;8.512;2023-10-13T03:35:35;6.23;;;4.10;;
6442;SDS011;3254;47.372;8.512;2023-10-13T03:38:06;6.17;;;4.30;;
6442;SDS011;3254;47.372;8.512;2023-10-13T03:40:44;6.70;;;4.30;;
6442;SDS011;3254;47.372;8.512;2023-10-13T03:43:14;5.07;;;4.23;;
6442;SDS011;3254;47.372;8.512;2023-10-13T03:45:48;9.13;;;4.50;;
6442;SDS011;3254;47.372;8.512;2023-10-13T03:48:18;4.83;;;4.40;;
6442;SDS011;3254;47.372;8.512;2023-10-13T03:50:50;8.77;;;4.53;;
6442;SDS011;3254;47.372;8.512;2023-10-13T03:53:32;6.30;;;4.37;;
6442;SDS011;3254;47.372;8.512;2023-10-13T03:55:59;10.47;;;5.63;;
6442;SDS011;3254;47.372;8.512;2023-10-13T03:58:37;7.90;;;5.10;;
6442;SDS011;3254;47.372;8.512;2023-10-13T04:01:06;26.63;;;5.17;;
6442;SDS011;3254;47.372;8.512;2023-10-13T04:03:34;7.30;;;4.87;;
6442;SDS011;3254;47.372;8.512;2023-10-13T04:06:01;7.50;;;4.80;;
6442;SDS011;3254;47.372;8.512;2023-10-13T04:08:33;12.10;;;5.00;;
6442;SDS011;3254;47.372;8.512;2023-10-13T04:11:08;11.87;;;4.83;;
6442;SDS011;3254;47.372;8.512;2023-10-13T04:14:06;6.20;;;5.17;;
6442;SDS011;3254;47.372;8.512;2023-10-13T04:16:49;5.80;;;4.90;;
6442;SDS011;3254;47.372;8.512;2023-10-13T04:19:19;8.60;;;4.80;;
6442;SDS011;3254;47.372;8.512;2023-10-13T04:21:48;7.80;;;5.23;;
6442;SDS011;3254;47.372;8.512;2023-10-13T04:24:22;13.40;;;5.20;;
6442;SDS011;3254;47.372;8.512;2023-10-13T04:27:04;11.03;;;5.07;;
6442;SDS011;3254;47.372;8.512;2023-10-13T04:29:48;10.07;;;5.10;;
6442;SDS011;3254;47.372;8.512;2023-10-13T04:32:35;6.63;;;4.53;;
6442;SDS011;3254;47.372;8.512;2023-10-13T04:35:06;9.33;;;5.03;;
6442;SDS011;3254;47.372;8.512;2023-10-13T04:37:38;8.83;;;4.77;;
6442;SDS011;3254;47.372;8.512;2023-10-13T04:40:17;12.93;;;4.83;;
6442;SDS011;3254;47.372;8.512;2023-10-13T04:42:44;6.13;;;4.60;;
6442;SDS011;3254;47.372;8.512;2023-10-13T04:45:19;7.53;;;5.33;;
6442;SDS011;3254;47.372;8.512;2023-10-13T04:48:03;8.47;;;5.50;;
6442;SDS011;3254;47.372;8.512;2023-10-13T04:50:45;5.33;;;4.93;;
6442;SDS011;3254;47.372;8.512;2023-10-13T04:53:13;7.80;;;4.87;;
6442;SDS011;3254;47.372;8.512;2023-10-13T04:56:20;9.70;;;4.30;;
6442;SDS011;3254;47.372;8.512;2023-10-13T04:59:04;11.97;;;5.47;;
6442;SDS011;3254;47.372;8.512;2023-10-13T05:01:48;6.90;;;4.80;;
6442;SDS011;3254;47.372;8.512;2023-10-13T05:04:22;5.90;;;4.50;;
6442;SDS011;3254;47.372;8.512;2023-10-13T05:07:04;19.53;;;4.77;;
6442;SDS011;3254;47.372;8.512;2023-10-13T05:09:49;7.03;;;4.93;;
6442;SDS011;3254;47.372;8.512;2023-10-13T05:12:33;12.47;;;5.40;;
6442;SDS011;3254;47.372;8.512;2023-10-13T05:15:18;7.20;;;4.17;;
6442;SDS011;3254;47.372;8.512;2023-10-13T05:18:02;10.83;;;4.73;;
6442;SDS011;3254;47.372;8.512;2023-10-13T05:20:48;11.00;;;4.70;;
6442;SDS011;3254;47.372;8.512;2023-10-13T05:23:32;8.33;;;4.20;;
6442;SDS011;3254;47.372;8.512;2023-10-13T05:26:16;15.77;;;4.97;;
6442;SDS011;3254;47.372;8.512;2023-10-13T05:29:00;7.73;;;4.90;;
6442;SDS011;3254;47.372;8.512;2023-10-13T05:31:44;15.73;;;6.23;;
6442;SDS011;3254;47.372;8.512;2023-10-13T05:34:28;16.13;;;5.80;;
6442;SDS011;3254;47.372;8.512;2023-10-13T05:37:13;15.67;;;5.17;;
6442;SDS011;3254;47.372;8.512;2023-10-13T05:39:57;8.50;;;5.20;;
6442;SDS011;3254;47.372;8.512;2023-10-13T05:42:42;9.40;;;5.60;;
6442;SDS011;3254;47.372;8.512;2023-10-13T05:45:26;9.47;;;5.20;;
6442;SDS011;3254;47.372;8.512;2023-10-13T05:48:10;10.97;;;5.93;;
6442;SDS011;3254;47.372;8.512;2023-10-13T05:50:44;13.30;;;5.67;;
6442;SDS011;3254;47.372;8.512;2023-10-13T05:53:35;9.53;;;5.00;;
6442;SDS011;3254;47.372;8.512;2023-10-13T05:56:19;9.10;;;4.23;;
6442;SDS011;3254;47.372;8.512;2023-10-13T05:59:03;8.80;;;4.77;;
6442;SDS011;3254;47.372;8.512;2023-10-13T06:01:47;13.00;;;5.93;;
6442;SDS011;3254;47.372;8.512;2023-10-13T06:04:31;10.00;;;5.43;;
6442;SDS011;3254;47.372;8.512;2023-10-13T06:07:16;18.50;;;5.50;;
6442;SDS011;3254;47.372;8.512;2023-10-13T06:10:04;11.40;;;5.97;;
6442;SDS011;3254;47.372;8.512;2023-10-13T06:12:49;17.30;;;5.80;;
6442;SDS011;3254;47.372;8.512;2023-10-13T06:15:35;20.43;;;5.87;;
6442;SDS011;3254;47.372;8.512;2023-10-13T06:18:20;13.67;;;5.33;;
6442;SDS011;3254;47.372;8.512;2023-10-13T06:21:04;23.07;;;5.70;;
6442;SDS011;3254;47.372;8.512;2023-10-13T06:23:48;14.50;;;5.40;;
6442;SDS011;3254;47.372;8.512;2023-10-13T06:26:32;9.43;;;5.83;;
6442;SDS011;3254;47.372;8.512;2023-10-13T06:29:17;17.53;;;6.60;;
6442;SDS011;3254;47.372;8.512;2023-10-13T06:31:45;13.10;;;6.07;;
6442;SDS011;3254;47.372;8.512;2023-10-13T06:34:11;23.63;;;6.37;;
6442;SDS011;3254;47.372;8.512;2023-10-13T06:36:40;10.90;;;5.73;;
6442;SDS011;3254;47.372;8.512;2023-10-13T06:39:07;13.83;;;6.17;;
6442;SDS011;3254;47.372;8.512;2023-10-13T06:42:11;11.47;;;5.43;;
6442;SDS011;3254;47.372;8.512;2023-10-13T06:44:37;20.53;;;6.30;;
6442;SDS011;3254;47.372;8.512;2023-10-13T06:47:04;14.80;;;5.93;;
6442;SDS011;3254;47.372;8.512;2023-10-13T06:49:30;22.10;;;6.83;;
6442;SDS011;3254;47.372;8.512;2023-10-13T06:52:03;13.03;;;6.87;;
6442;SDS011;3254;47.372;8.512;2023-10-13T06:54:32;16.47;;;6.20;;
6442;SDS011;3254;47.372;8.512;2023-10-13T06:57:01;20.23;;;6.27;;
6442;SDS011;3254;47.372;8.512;2023-10-13T06:59:29;19.50;;;6.60;;
6442;SDS011;3254;47.372;8.512;2023-10-13T07:01:58;25.87;;;6.37;;
6442;SDS011;3254;47.372;8.512;2023-10-13T07:04:29;31.77;;;6.00;;
6442;SDS011;3254;47.372;8.512;2023-10-13T07:06:55;26.77;;;6.87;;
6442;SDS011;3254;47.372;8.512;2023-10-13T07:09:21;30.20;;;7.60;;
6442;SDS011;3254;47.372;8.512;2023-10-13T07:12:13;27.77;;;7.30;;
6442;SDS011;3254;47.372;8.512;2023-10-13T07:14:45;33.97;;;7.80;;
6442;SDS011;3254;47.372;8.512;2023-10-13T07:17:17;34.03;;;7.50;;
6442;SDS011;3254;47.372;8.512;2023-10-13T07:19:50;24.97;;;7.60;;
6442;SDS011;3254;47.372;8.512;2023-10-13T07:22:21;23.23;;;7.00;;
6442;SDS011;3254;47.372;8.512;2023-10-13T07:24:48;15.33;;;6.20;;
6442;SDS011;3254;47.372;8.512;2023-10-13T07:27:22;17.60;;;6.90;;
6442;SDS011;3254;47.372;8.512;2023-10-13T07:29:52;36.73;;;7.20;;
6442;SDS011;3254;47.372;8.512;2023-10-13T07:32:23;20.60;;;6.70;;
6442;SDS011;3254;47.372;8.512;2023-10-13T07:34:55;16.27;;;6.87;;
6442;SDS011;3254;47.372;8.512;2023-10-13T07:37:22;20.77;;;6.60;;
6442;SDS011;3254;47.372;8.512;2023-10-13T07:39:53;35.30;;;6.77;;
6442;SDS011;3254;47.372;8.512;2023-10-13T07:42:22;17.40;;;6.40;;
6442;SDS011;3254;47.372;8.512;2023-10-13T07:44:57;17.27;;;5.40;;
6442;SDS011;3254;47.372;8.512;2023-10-13T07:47:24;14.13;;;6.57;;
6442;SDS011;3254;47.372;8.512;2023-10-13T07:49:51;14.70;;;5.70;;
6442;SDS011;3254;47.372;8.512;2023-10-13T07:52:17;22.23;;;7.00;;
6442;SDS011;3254;47.372;8.512;2023-10-13T07:54:48;7.73;;;5.00;;
6442;SDS011;3254;47.372;8.512;2023-10-13T07:57:24;6.67;;;4.27;;
6442;SDS011;3254;47.372;8.512;2023-10-13T07:59:56;14.77;;;4.70;;
6442;SDS011;3254;47.372;8.512;2023-10-13T08:02:35;8.10;;;4.33;;
6442;SDS011;3254;47.372;8.512;2023-10-13T08:05:21;18.33;;;6.53;;
6442;SDS011;3254;47.372;8.512;2023-10-13T08:07:54;10.37;;;4.53;;
6442;SDS011;3254;47.372;8.512;2023-10-13T08:10:21;10.47;;;4.10;;
6442;SDS011;3254;47.372;8.512;2023-10-13T08:12:54;8.37;;;3.70;;
6442;SDS011;3254;47.372;8.512;2023-10-13T08:15:22;7.13;;;3.70;;
6442;SDS011;3254;47.372;8.512;2023-10-13T08:17:57;7.67;;;4.00;;
6442;SDS011;3254;47.372;8.512;2023-10-13T08:20:42;14.53;;;4.27;;
6442;SDS011;3254;47.372;8.512;2023-10-13T08:23:09;22.10;;;3.90;;
6442;SDS011;3254;47.372;8.512;2023-10-13T08:25:45;14.37;;;3.30;;
6442;SDS011;3254;47.372;8.512;2023-10-13T08:28:29;11.67;;;3.50;;
6442;SDS011;3254;47.372;8.512;2023-10-13T08:31:04;12.63;;;3.30;;
6442;SDS011;3254;47.372;8.512;2023-10-13T08:33:46;6.27;;;3.40;;
6442;SDS011;3254;47.372;8.512;2023-10-13T08:36:12;7.80;;;3.50;;
6442;SDS011;3254;47.372;8.512;2023-10-13T08:38:53;17.60;;;4.20;;
6442;SDS011;3254;47.372;8.512;2023-10-13T08:41:20;9.63;;;3.90;;
6442;SDS011;3254;47.372;8.512;2023-10-13T08:43:50;6.80;;;3.60;;
6442;SDS011;3254;47.372;8.512;2023-10-13T08:46:16;10.30;;;3.67;;
6442;SDS011;3254;47.372;8.512;2023-10-13T08:48:58;8.80;;;3.37;;
6442;SDS011;3254;47.372;8.512;2023-10-13T08:51:39;13.30;;;3.60;;
6442;SDS011;3254;47.372;8.512;2023-10-13T08:54:11;15.03;;;3.77;;
6442;SDS011;3254;47.372;8.512;2023-10-13T08:56:44;10.30;;;3.37;;
6442;SDS011;3254;47.372;8.512;2023-10-13T08:59:21;9.83;;;3.17;;
6442;SDS011;3254;47.372;8.512;2023-10-13T09:01:58;10.20;;;3.60;;
6442;SDS011;3254;47.372;8.512;2023-10-13T09:04:42;7.87;;;3.50;;
6442;SDS011;3254;47.372;8.512;2023-10-13T09:07:10;12.40;;;4.07;;
6442;SDS011;3254;47.372;8.512;2023-10-13T09:12:21;12.40;;;5.93;;
6442;SDS011;3254;47.372;8.512;2023-10-13T09:15:06;6.27;;;3.27;;
6442;SDS011;3254;47.372;8.512;2023-10-13T09:17:42;7.40;;;3.50;;
6442;SDS011;3254;47.372;8.512;2023-10-13T09:20:29;24.60;;;3.90;;
6442;SDS011;3254;47.372;8.512;2023-10-13T09:23:12;5.53;;;3.23;;
6442;SDS011;3254;47.372;8.512;2023-10-13T09:25:49;10.70;;;3.73;;
6442;SDS011;3254;47.372;8.512;2023-10-13T09:28:23;4.03;;;3.60;;
6442;SDS011;3254;47.372;8.512;2023-10-13T09:30:53;9.40;;;3.57;;
6442;SDS011;3254;47.372;8.512;2023-10-13T09:33:30;10.20;;;4.17;;
6442;SDS011;3254;47.372;8.512;2023-10-13T09:36:05;12.80;;;3.00;;
6442;SDS011;3254;47.372;8.512;2023-10-13T09:38:38;5.70;;;2.80;;
6442;SDS011;3254;47.372;8.512;2023-10-13T09:41:13;7.10;;;3.00;;
6442;SDS011;3254;47.372;8.512;2023-10-13T09:43:45;13.50;;;3.20;;
6442;SDS011;3254;47.372;8.512;2023-10-13T09:46:11;6.87;;;3.10;;
6442;SDS011;3254;47.372;8.512;2023-10-13T09:48:44;10.60;;;3.77;;
6442;SDS011;3254;47.372;8.512;2023-10-13T09:51:15;9.90;;;3.10;;
6442;SDS011;3254;47.372;8.512;2023-10-13T09:53:48;7.20;;;2.87;;
6442;SDS011;3254;47.372;8.512;2023-10-13T09:56:28;5.93;;;3.37;;
6442;SDS011;3254;47.372;8.512;2023-10-13T09:59:02;10.00;;;3.90;;
6442;SDS011;3254;47.372;8.512;2023-10-13T10:01:41;8.57;;;3.53;;
6442;SDS011;3254;47.372;8.512;2023-10-13T10:04:24;5.33;;;3.23;;
6442;SDS011;3254;47.372;8.512;2023-10-13T10:06:56;11.30;;;3.80;;
6442;SDS011;3254;47.372;8.512;2023-10-13T10:09:28;14.73;;;4.00;;
6442;SDS011;3254;47.372;8.512;2023-10-13T10:12:14;4.77;;;3.40;;
6442;SDS011;3254;47.372;8.512;2023-10-13T10:17:26;12.00;;;3.67;;
6442;SDS011;3254;47.372;8.512;2023-10-13T10:19:54;3.50;;;2.50;;
6442;SDS011;3254;47.372;8.512;2023-10-13T10:22:28;6.33;;;2.83;;
6442;SDS011;3254;47.372;8.512;2023-10-13T10:25:04;9.30;;;3.30;;
6442;SDS011;3254;47.372;8.512;2023-10-13T10:27:56;6.77;;;2.90;;
6442;SDS011;3254;47.372;8.512;2023-10-13T10:30:26;7.00;;;2.30;;
6442;SDS011;3254;47.372;8.512;2023-10-13T10:32:56;3.20;;;2.70;;
6442;SDS011;3254;47.372;8.512;2023-10-13T10:35:26;9.40;;;2.93;;
6442;SDS011;3254;47.372;8.512;2023-10-13T10:40:52;8.33;;;2.80;;
6442;SDS011;3254;47.372;8.512;2023-10-13T10:43:22;5.60;;;2.43;;
6442;SDS011;3254;47.372;8.512;2023-10-13T10:46:15;3.80;;;2.70;;
6442;SDS011;3254;47.372;8.512;2023-10-13T10:48:43;6.53;;;3.03;;
6442;SDS011;3254;47.372;8.512;2023-10-13T10:51:09;3.57;;;2.70;;
6442;SDS011;3254;47.372;8.512;2023-10-13T10:53:40;8.90;;;2.63;;
6442;SDS011;3254;47.372;8.512;2023-10-13T10:56:10;6.00;;;2.73;;
6442;SDS011;3254;47.372;8.512;2023-10-13T10:58:48;3.40;;;2.90;;
6442;SDS011;3254;47.372;8.512;2023-10-13T11:01:23;9.03;;;3.07;;
6442;SDS011;3254;47.372;8.512;2023-10-13T11:04:00;3.43;;;2.97;;
6442;SDS011;3254;47.372;8.512;2023-10-13T11:06:45;5.70;;;2.53;;
6442;SDS011;3254;47.372;8.512;2023-10-13T11:09:12;3.47;;;2.50;;
6442;SDS011;3254;47.372;8.512;2023-10-13T11:11:47;7.20;;;2.93;;
6442;SDS011;3254;47.372;8.512;2023-10-13T11:14:24;5.83;;;2.77;;
6442;SDS011;3254;47.372;8.512;2023-10-13T11:16:54;8.53;;;2.80;;
6442;SDS011;3254;47.372;8.512;2023-10-13T11:19:38;14.37;;;2.63;;
6442;SDS011;3254;47.372;8.512;2023-10-13T11:22:12;4.87;;;2.37;;
6442;SDS011;3254;47.372;8.512;2023-10-13T11:24:57;5.20;;;2.33;;
6442;SDS011;3254;47.372;8.512;2023-10-13T11:27:34;5.53;;;2.60;;
6442;SDS011;3254;47.372;8.512;2023-10-13T11:30:13;12.70;;;3.40;;
6442;SDS011;3254;47.372;8.512;2023-10-13T11:33:30;6.93;;;3.10;;
6442;SDS011;3254;47.372;8.512;2023-10-13T11:35:33;5.80;;;2.30;;
6442;SDS011;3254;47.372;8.512;2023-10-13T11:38:33;3.67;;;3.10;;
6442;SDS011;3254;47.372;8.512;2023-10-13T11:41:05;6.37;;;2.77;;
6442;SDS011;3254;47.372;8.512;2023-10-13T11:46:24;6.70;;;3.23;;
6442;SDS011;3254;47.372;8.512;2023-10-13T11:49:11;4.43;;;2.33;;
6442;SDS011;3254;47.372;8.512;2023-10-13T11:51:40;6.07;;;2.90;;
6442;SDS011;3254;47.372;8.512;2023-10-13T11:56:40;4.33;;;2.50;;
6442;SDS011;3254;47.372;8.512;2023-10-13T11:59:06;8.87;;;3.07;;
6442;SDS011;3254;47.372;8.512;2023-10-13T12:01:41;3.67;;;2.40;;
6442;SDS011;3254;47.372;8.512;2023-10-13T12:04:26;7.23;;;2.87;;
6442;SDS011;3254;47.372;8.512;2023-10-13T12:06:58;6.60;;;3.20;;
6442;SDS011;3254;47.372;8.512;2023-10-13T12:09:42;4.90;;;2.63;;
6442;SDS011;3254;47.372;8.512;2023-10-13T12:12:21;3.73;;;3.00;;
6442;SDS011;3254;47.372;8.512;2023-10-13T12:14:50;9.23;;;2.60;;
6442;SDS011;3254;47.372;8.512;2023-10-13T12:17:22;4.90;;;2.87;;
6442;SDS011;3254;47.372;8.512;2023-10-13T12:20:03;4.93;;;2.73;;
6442;SDS011;3254;47.372;8.512;2023-10-13T12:22:30;5.50;;;2.33;;
6442;SDS011;3254;47.372;8.512;2023-10-13T12:25:08;6.30;;;2.60;;
6442;SDS011;3254;47.372;8.512;2023-10-13T12:27:53;3.73;;;2.83;;
6442;SDS011;3254;47.372;8.512;2023-10-13T12:30:23;5.60;;;2.70;;
6442;SDS011;3254;47.372;8.512;2023-10-13T12:33:03;7.10;;;3.13;;
6442;SDS011;3254;47.372;8.512;2023-10-13T12:35:34;5.30;;;3.23;;
6442;SDS011;3254;47.372;8.512;2023-10-13T12:38:10;9.30;;;3.33;;
6442;SDS011;3254;47.372;8.512;2023-10-13T12:41:03;4.83;;;2.60;;
6442;SDS011;3254;47.372;8.512;2023-10-13T12:43:48;4.20;;;2.60;;
6442;SDS011;3254;47.372;8.512;2023-10-13T12:46:36;5.33;;;2.53;;
6442;SDS011;3254;47.372;8.512;2023-10-13T12:49:20;7.07;;;2.57;;
6442;SDS011;3254;47.372;8.512;2023-10-13T12:52:04;4.40;;;2.60;;
6442;SDS011;3254;47.372;8.512;2023-10-13T12:54:40;8.40;;;2.70;;
6442;SDS011;3254;47.372;8.512;2023-10-13T12:57:24;15.40;;;2.93;;
6442;SDS011;3254;47.372;8.512;2023-10-13T12:59:50;10.70;;;2.70;;
6442;SDS011;3254;47.372;8.512;2023-10-13T13:02:23;11.13;;;2.80;;
6442;SDS011;3254;47.372;8.512;2023-10-13T13:04:56;4.90;;;2.40;;
6442;SDS011;3254;47.372;8.512;2023-10-13T13:07:27;10.93;;;2.50;;
6442;SDS011;3254;47.372;8.512;2023-10-13T13:09:54;6.23;;;3.23;;
6442;SDS011;3254;47.372;8.512;2023-10-13T13:12:23;26.33;;;2.73;;
6442;SDS011;3254;47.372;8.512;2023-10-13T13:14:49;3.30;;;2.57;;
6442;SDS011;3254;47.372;8.512;2023-10-13T13:17:19;10.73;;;3.03;;
6442;SDS011;3254;47.372;8.512;2023-10-13T13:19:46;5.83;;;3.00;;
6442;SDS011;3254;47.372;8.512;2023-10-13T13:22:11;5.53;;;2.70;;
6442;SDS011;3254;47.372;8.512;2023-10-13T13:24:38;3.50;;;2.80;;
6442;SDS011;3254;47.372;8.512;2023-10-13T13:27:08;6.27;;;2.77;;
6442;SDS011;3254;47.372;8.512;2023-10-13T13:29:44;10.10;;;2.73;;
6442;SDS011;3254;47.372;8.512;2023-10-13T13:32:10;4.77;;;2.40;;
6442;SDS011;3254;47.372;8.512;2023-10-13T13:34:44;2.93;;;2.70;;
6442;SDS011;3254;47.372;8.512;2023-10-13T13:37:10;7.50;;;2.73;;
6442;SDS011;3254;47.372;8.512;2023-10-13T13:39:38;13.93;;;2.60;;
6442;SDS011;3254;47.372;8.512;2023-10-13T13:42:09;7.50;;;2.60;;
6442;SDS011;3254;47.372;8.512;2023-10-13T13:44:35;6.03;;;2.90;;
6442;SDS011;3254;47.372;8.512;2023-10-13T13:47:03;12.83;;;2.57;;
6442;SDS011;3254;47.372;8.512;2023-10-13T13:49:37;17.93;;;3.33;;
6442;SDS011;3254;47.372;8.512;2023-10-13T13:52:06;4.03;;;3.10;;
6442;SDS011;3254;47.372;8.512;2023-10-13T13:54:32;3.10;;;2.30;;
6442;SDS011;3254;47.372;8.512;2023-10-13T13:56:58;9.30;;;2.97;;
6442;SDS011;3254;47.372;8.512;2023-10-13T13:59:23;10.97;;;2.53;;
6442;SDS011;3254;47.372;8.512;2023-10-13T14:01:49;7.17;;;2.50;;
6442;SDS011;3254;47.372;8.512;2023-10-13T14:04:17;2.97;;;2.70;;
6442;SDS011;3254;47.372;8.512;2023-10-13T14:06:43;11.40;;;3.17;;
6442;SDS011;3254;47.372;8.512;2023-10-13T14:09:10;4.17;;;3.00;;
6442;SDS011;3254;47.372;8.512;2023-10-13T14:12:11;8.83;;;3.23;;
6442;SDS011;3254;47.372;8.512;2023-10-13T14:15:06;6.50;;;2.57;;
6442;SDS011;3254;47.372;8.512;2023-10-13T14:17:45;4.67;;;2.37;;
6442;SDS011;3254;47.372;8.512;2023-10-13T14:20:11;11.30;;;3.00;;
6442;SDS011;3254;47.372;8.512;2023-10-13T14:22:43;6.53;;;2.70;;
6442;SDS011;3254;47.372;8.512;2023-10-13T14:25:12;3.97;;;2.80;;
6442;SDS011;3254;47.372;8.512;2023-10-13T14:27:39;4.70;;;2.73;;
6442;SDS011;3254;47.372;8.512;2023-10-13T14:30:06;3.73;;;2.60;;
6442;SDS011;3254;47.372;8.512;2023-10-13T14:32:32;4.20;;;2.60;;
6442;SDS011;3254;47.372;8.512;2023-10-13T14:35:04;12.63;;;2.93;;
6442;SDS011;3254;47.372;8.512;2023-10-13T14:37:39;6.30;;;2.87;;
6442;SDS011;3254;47.372;8.512;2023-10-13T14:40:05;2.97;;;2.77;;
6442;SDS011;3254;47.372;8.512;2023-10-13T14:42:36;6.23;;;2.90;;
6442;SDS011;3254;47.372;8.512;2023-10-13T14:45:05;7.57;;;2.80;;
6442;SDS011;3254;47.372;8.512;2023-10-13T14:47:37;10.30;;;2.97;;
6442;SDS011;3254;47.372;8.512;2023-10-13T14:50:04;4.70;;;2.73;;
6442;SDS011;3254;47.372;8.512;2023-10-13T14:52:31;7.70;;;2.70;;
6442;SDS011;3254;47.372;8.512;2023-10-13T14:55:00;4.33;;;2.00;;
6442;SDS011;3254;47.372;8.512;2023-10-13T14:57:25;4.90;;;2.40;;
6442;SDS011;3254;47.372;8.512;2023-10-13T14:59:55;4.50;;;3.20;;
6442;SDS011;3254;47.372;8.512;2023-10-13T15:02:22;7.30;;;2.60;;
6442;SDS011;3254;47.372;8.512;2023-10-13T15:04:48;3.20;;;2.70;;
6442;SDS011;3254;47.372;8.512;2023-10-13T15:07:14;7.50;;;2.83;;
6442;SDS011;3254;47.372;8.512;2023-10-13T15:09:41;5.03;;;2.53;;
6442;SDS011;3254;47.372;8.512;2023-10-13T15:12:08;3.67;;;2.63;;
6442;SDS011;3254;47.372;8.512;2023-10-13T15:14:35;8.57;;;3.07;;
6442;SDS011;3254;47.372;8.512;2023-10-13T15:17:02;2.30;;;2.10;;
6442;SDS011;3254;47.372;8.512;2023-10-13T15:19:31;6.50;;;2.63;;
6442;SDS011;3254;47.372;8.512;2023-10-13T15:22:01;4.73;;;2.60;;
6442;SDS011;3254;47.372;8.512;2023-10-13T15:24:27;7.33;;;3.10;;
6442;SDS011;3254;47.372;8.512;2023-10-13T15:26:53;5.20;;;2.57;;
6442;SDS011;3254;47.372;8.512;2023-10-13T15:29:26;10.97;;;3.03;;
6442;SDS011;3254;47.372;8.512;2023-10-13T15:32:00;6.47;;;2.47;;
6442;SDS011;3254;47.372;8.512;2023-10-13T15:34:26;4.43;;;2.40;;
6442;SDS011;3254;47.372;8.512;2023-10-13T15:36:52;5.27;;;2.80;;
6442;SDS011;3254;47.372;8.512;2023-10-13T15:39:19;4.13;;;2.43;;
6442;SDS011;3254;47.372;8.512;2023-10-13T15:41:49;3.53;;;2.17;;
6442;SDS011;3254;47.372;8.512;2023-10-13T15:44:18;11.40;;;3.20;;
6442;SDS011;3254;47.372;8.512;2023-10-13T15:46:45;2.63;;;2.43;;
6442;SDS011;3254;47.372;8.512;2023-10-13T15:49:17;4.07;;;2.63;;
6442;SDS011;3254;47.372;8.512;2023-10-13T15:51:42;9.80;;;3.23;;
6442;SDS011;3254;47.372;8.512;2023-10-13T15:54:09;6.17;;;2.57;;
6442;SDS011;3254;47.372;8.512;2023-10-13T15:56:44;8.43;;;2.73;;
6442;SDS011;3254;47.372;8.512;2023-10-13T15:59:10;14.27;;;3.00;;
6442;SDS011;3254;47.372;8.512;2023-10-13T16:01:36;3.30;;;3.00;;
6442;SDS011;3254;47.372;8.512;2023-10-13T16:04:04;7.03;;;2.90;;